Time;durP1;ratioP1;P1;durP2;ratioP2;P2;SDS_P1;SDS_P2;PMS_P1;PMS_P2;Temp;Humidity;BMP_temperature;BMP_pressure;BME280_temperature;BME280_humidity;BME280_pressure;Samples;Min_cycle;Max_cycle;Signal;HPM_P1;HPM_P2
2023/01/02 00:09:17;;;;;;;3.42;1.15;;;9.70;99.90;;;;;;6371090;22;20019;-91
2023/01/02 00:11:43;;;;;;;3.17;1.27;;;9.70;99.90;;;;;;6318599;22;20101;-95
2023/01/02 00:14:08;;;;;;;3.20;1.17;;;9.70;99.90;;;;;;6344366;22;20042;-94
2023/01/02 00:20:00;;;;;;;4.40;1.67;;;9.70;99.90;;;;;;6306485;22;20033;-89
2023/01/02 00:23:22;;;;;;;3.63;1.53;;;9.80;99.90;;;;;;6287562;22;20043;-90
2023/01/02 00:25:48;;;;;;;6.57;1.80;;;9.80;99.90;;;;;;6312907;22;20015;-91
2023/01/02 00:28:36;;;;;;;5.68;2.22;;;9.90;99.90;;;;;;6287134;22;20011;-89
2023/01/02 00:31:10;;;;;;;4.75;1.90;;;9.90;99.90;;;;;;6287212;22;20021;-90
2023/01/02 00:33:36;;;;;;;7.40;2.42;;;9.90;99.90;;;;;;6287456;22;20058;-92
2023/01/02 00:36:06;;;;;;;5.72;2.28;;;9.90;99.90;;;;;;6287172;22;20089;-90
2023/01/02 00:38:32;;;;;;;5.75;2.53;;;10.00;99.90;;;;;;6287389;22;20101;-91
2023/01/02 00:40:58;;;;;;;5.63;2.85;;;10.00;99.90;;;;;;6286786;22;20358;-92
2023/01/02 00:43:48;;;;;;;5.50;2.57;;;10.10;99.90;;;;;;6284896;22;20030;-91
2023/01/02 00:49:57;;;;;;;4.05;1.63;;;10.10;99.90;;;;;;6338784;22;20068;-94
2023/01/02 00:52:22;;;;;;;5.50;2.30;;;10.10;99.90;;;;;;6259478;22;20026;-92
2023/01/02 00:54:48;;;;;;;4.53;2.23;;;10.10;99.90;;;;;;6285224;22;20022;-92
2023/01/02 00:57:14;;;;;;;4.53;1.87;;;10.20;99.90;;;;;;6285436;22;20018;-94
2023/01/02 01:00:09;;;;;;;7.27;2.13;;;10.20;99.90;;;;;;6254957;22;20015;-92
2023/01/02 01:02:35;;;;;;;6.65;2.20;;;10.20;99.90;;;;;;6284060;22;20018;-93
2023/01/02 01:05:01;;;;;;;5.20;2.13;;;10.20;99.90;;;;;;6285231;22;20026;-92
2023/01/02 01:07:28;;;;;;;4.83;2.00;;;10.30;99.90;;;;;;6259500;22;20011;-93
2023/01/02 01:09:54;;;;;;;5.25;2.40;;;10.30;99.90;;;;;;6285276;22;20164;-92
2023/01/02 01:12:19;;;;;;;3.97;1.77;;;10.30;99.90;;;;;;6285588;22;20452;-91
2023/01/02 01:14:45;;;;;;;4.93;1.80;;;10.30;99.90;;;;;;6261333;22;20017;-92
2023/01/02 01:17:11;;;;;;;4.17;1.63;;;10.30;99.90;;;;;;6287245;22;20225;-92
2023/01/02 01:19:36;;;;;;;3.03;1.40;;;10.30;99.90;;;;;;6256057;22;20074;-92
2023/01/02 01:22:02;;;;;;;3.97;1.50;;;10.30;99.90;;;;;;6279550;22;20030;-92
2023/01/02 01:24:28;;;;;;;4.67;1.53;;;10.30;99.90;;;;;;6312559;22;20022;-93
2023/01/02 01:26:54;;;;;;;3.47;1.40;;;10.40;99.90;;;;;;6286902;22;20120;-92
2023/01/02 01:29:48;;;;;;;4.23;1.60;;;10.30;99.90;;;;;;6287572;22;20244;-93
2023/01/02 01:32:13;;;;;;;4.28;1.40;;;10.40;99.90;;;;;;6287462;22;20029;-93
2023/01/02 01:35:09;;;;;;;4.03;1.53;;;10.40;99.90;;;;;;6286770;22;20090;-92
2023/01/02 01:37:37;;;;;;;3.97;1.40;;;10.40;99.90;;;;;;6286716;22;20718;-93
2023/01/02 01:40:03;;;;;;;5.18;1.55;;;10.40;99.90;;;;;;6286820;22;20019;-91
2023/01/02 01:42:32;;;;;;;3.78;1.40;;;10.40;99.90;;;;;;6259594;22;20015;-92
2023/01/02 01:44:58;;;;;;;5.43;1.50;;;10.50;99.90;;;;;;6286710;22;20050;-91
2023/01/02 01:47:36;;;;;;;4.97;1.70;;;10.50;99.90;;;;;;6261271;22;20011;-90
2023/01/02 01:54:22;;;;;;;4.10;1.63;;;10.50;99.90;;;;;;6340330;22;20476;-92
2023/01/02 01:56:55;;;;;;;4.68;1.80;;;10.50;99.90;;;;;;6286411;22;20347;-92
2023/01/02 01:59:21;;;;;;;3.95;1.80;;;10.50;99.90;;;;;;6286664;22;20026;-91
2023/01/02 02:01:49;;;;;;;3.83;1.90;;;10.60;99.90;;;;;;6286260;22;20014;-93
2023/01/02 02:04:40;;;;;;;4.72;2.08;;;10.60;99.90;;;;;;6286666;22;20112;-94
2023/01/02 02:17:46;;;;;;;5.70;2.60;;;10.60;99.90;;;;;;6340778;22;20023;-90
2023/01/02 02:20:49;;;;;;;7.85;2.63;;;10.60;99.90;;;;;;6343425;22;20022;-92
2023/01/02 02:23:37;;;;;;;6.40;2.75;;;10.70;99.90;;;;;;6279334;22;20014;-92
2023/01/02 02:26:48;;;;;;;5.95;2.80;;;10.70;99.90;;;;;;6344327;22;20384;-93
2023/01/02 02:29:20;;;;;;;7.90;2.83;;;10.70;99.90;;;;;;6343576;22;20029;-92
2023/01/02 02:32:22;;;;;;;5.22;2.47;;;10.70;99.90;;;;;;6343706;22;20018;-90
2023/01/02 02:40:12;;;;;;;5.32;2.40;;;10.70;99.90;;;;;;6359223;22;20439;-93
2023/01/02 02:43:06;;;;;;;5.25;2.45;;;10.80;99.90;;;;;;6343003;22;20049;-92
2023/01/02 02:45:59;;;;;;;5.75;2.50;;;10.80;99.90;;;;;;6343898;22;20029;-90
2023/01/02 02:48:38;;;;;;;5.22;2.33;;;10.80;99.90;;;;;;6343861;22;20017;-93
2023/01/02 02:51:22;;;;;;;4.97;2.35;;;10.80;99.90;;;;;;6344122;22;20018;-90
2023/01/02 02:54:04;;;;;;;5.05;2.40;;;10.80;99.90;;;;;;6343569;22;20099;-91
2023/01/02 02:56:31;;;;;;;4.90;2.30;;;10.90;99.90;;;;;;6343183;22;20014;-91
2023/01/02 02:58:56;;;;;;;;;;;10.90;99.90;;;;;;6317668;22;20419;-93
2023/01/02 03:01:26;;;;;;;5.03;2.40;;;10.90;99.90;;;;;;6343476;22;19914;-92
2023/01/02 03:03:51;;;;;;;5.88;2.42;;;10.90;99.90;;;;;;6343163;22;20071;-93
2023/01/02 03:06:17;;;;;;;6.05;2.90;;;10.90;99.90;;;;;;6343531;22;20338;-94
2023/01/02 03:09:09;;;;;;;5.70;3.07;;;10.90;99.90;;;;;;6343663;22;20357;-92
2023/01/02 03:11:47;;;;;;;5.30;2.60;;;10.90;99.90;;;;;;6343249;22;20481;-92
2023/01/02 03:14:28;;;;;;;5.78;2.90;;;10.90;99.90;;;;;;6343273;22;20017;-92
2023/01/02 03:17:10;;;;;;;6.03;2.90;;;10.90;99.90;;;;;;6343265;22;20011;-93
2023/01/02 03:19:41;;;;;;;6.93;2.67;;;11.00;99.90;;;;;;6342827;22;20010;-91
2023/01/02 03:22:25;;;;;;;5.35;2.22;;;11.00;99.90;;;;;;6342998;22;20014;-90
2023/01/02 03:24:54;;;;;;;5.10;2.40;;;11.00;99.90;;;;;;6343439;22;20097;-91
2023/01/02 03:27:29;;;;;;;7.75;2.88;;;11.00;99.90;;;;;;6344859;22;20347;-90
2023/01/02 03:30:04;;;;;;;4.78;2.33;;;11.00;99.90;;;;;;6345136;22;20014;-91
2023/01/02 03:32:34;;;;;;;5.20;2.28;;;11.00;99.90;;;;;;6345069;22;20010;-92
2023/01/02 03:35:04;;;;;;;5.45;2.50;;;11.00;99.90;;;;;;6345067;22;20079;-92
2023/01/02 03:37:35;;;;;;;5.20;2.47;;;11.00;99.90;;;;;;6344783;22;20087;-92
2023/01/02 03:40:08;;;;;;;6.10;2.67;;;11.00;99.90;;;;;;6344608;22;20018;-92
2023/01/02 03:43:22;;;;;;;6.20;2.72;;;11.00;99.90;;;;;;6345274;22;20060;-92
2023/01/02 03:45:55;;;;;;;5.15;2.50;;;11.00;99.90;;;;;;6318439;22;20521;-90
2023/01/02 03:48:30;;;;;;;5.22;2.50;;;11.00;99.90;;;;;;6344797;22;20019;-89
2023/01/02 03:50:58;;;;;;;5.78;2.67;;;11.00;99.90;;;;;;6345200;22;20010;-91
2023/01/02 03:53:25;;;;;;;5.28;2.42;;;11.00;99.90;;;;;;6345252;22;20427;-92
2023/01/02 04:07:11;;;;;;;7.55;3.30;;;11.10;99.90;;;;;;6365182;22;20026;-90
2023/01/02 04:09:39;;;;;;;7.57;3.70;;;11.10;99.90;;;;;;6287393;22;20041;-91
2023/01/02 04:17:17;;;;;;;9.32;3.97;;;11.10;99.90;;;;;;6345403;22;20075;-91
2023/01/02 04:19:48;;;;;;;7.22;3.65;;;11.10;99.90;;;;;;6344900;22;20106;-92
2023/01/02 04:22:25;;;;;;;8.43;3.60;;;11.10;99.90;;;;;;6344586;22;20379;-89
2023/01/02 04:25:17;;;;;;;8.07;3.97;;;11.20;99.90;;;;;;6344655;22;20014;-91
2023/01/02 04:28:01;;;;;;;8.25;4.28;;;11.10;99.90;;;;;;6365733;22;20014;-92
2023/01/02 04:30:54;;;;;;;6.50;3.47;;;11.10;99.90;;;;;;6345392;22;20340;-91
2023/01/02 04:33:22;;;;;;;7.90;3.65;;;11.20;99.90;;;;;;6344926;22;20070;-91
2023/01/02 04:35:48;;;;;;;9.88;4.30;;;11.20;99.90;;;;;;6343913;22;20015;-91
2023/01/02 04:38:14;;;;;;;7.28;4.00;;;11.20;99.90;;;;;;6344235;22;20079;-94
2023/01/02 04:40:40;;;;;;;9.03;4.00;;;11.20;99.90;;;;;;6344602;22;20063;-91
2023/01/02 04:43:20;;;;;;;10.37;3.80;;;11.20;99.90;;;;;;6344240;22;20585;-91
2023/01/02 04:45:47;;;;;;;7.45;3.65;;;11.20;99.90;;;;;;6344569;22;20014;-91
2023/01/02 04:48:24;;;;;;;;;;;;;;;;;;;;;
2023/01/02 04:50:54;;;;;;;7.28;3.80;;;11.20;99.90;;;;;;6370879;22;20019;-90
2023/01/02 04:53:20;;;;;;;9.23;4.18;;;11.20;99.90;;;;;;6344237;22;20007;-92
2023/01/02 04:55:46;;;;;;;7.78;4.10;;;11.20;99.90;;;;;;6344247;22;20059;-93
2023/01/02 04:58:11;;;;;;;10.07;4.38;;;11.20;99.90;;;;;;6344101;22;20097;-94
2023/01/02 05:00:37;;;;;;;9.93;3.83;;;11.30;99.90;;;;;;6344383;22;20025;-92
2023/01/02 05:03:04;;;;;;;9.70;4.75;;;11.20;99.90;;;;;;6318115;22;20260;-93
2023/01/02 05:05:30;;;;;;;7.97;4.47;;;11.30;99.90;;;;;;6343901;22;20018;-89
2023/01/02 05:07:57;;;;;;;7.90;4.07;;;11.20;99.90;;;;;;6344678;22;20040;-93
2023/01/02 05:10:23;;;;;;;8.90;3.65;;;11.20;99.90;;;;;;6318043;22;20079;-90
2023/01/02 05:12:49;;;;;;;7.57;3.47;;;11.30;99.90;;;;;;6370348;22;20014;-90
2023/01/02 05:15:14;;;;;;;7.10;3.40;;;11.20;99.90;;;;;;6344944;22;20010;-90
2023/01/02 05:17:41;;;;;;;8.87;3.03;;;11.20;99.90;;;;;;6318321;22;20074;-93
2023/01/02 05:20:09;;;;;;;5.97;2.88;;;11.20;99.90;;;;;;6344962;22;20078;-94
2023/01/02 05:25:23;;;;;;;4.78;2.35;;;11.30;99.90;;;;;;6370464;22;20018;-93
2023/01/02 05:27:56;;;;;;;4.47;2.10;;;11.30;99.90;;;;;;6344091;22;20447;-94
2023/01/02 05:30:22;;;;;;;4.80;2.10;;;11.30;99.90;;;;;;6344039;22;20025;-93
2023/01/02 05:32:48;;;;;;;4.50;1.88;;;11.30;99.90;;;;;;6344144;22;20436;-94
2023/01/02 05:35:17;;;;;;;3.88;1.45;;;11.30;99.90;;;;;;6344757;22;20017;-95
2023/01/02 05:37:42;;;;;;;4.18;1.65;;;11.30;99.90;;;;;;6318161;22;20014;-92
2023/01/02 05:40:09;;;;;;;3.73;1.60;;;11.30;99.90;;;;;;6317974;22;20017;-93
2023/01/02 05:42:35;;;;;;;6.00;1.88;;;11.30;99.90;;;;;;6318007;22;20025;-95
2023/01/02 05:45:01;;;;;;;3.50;1.67;;;11.30;99.90;;;;;;6317897;22;20018;-91
2023/01/02 05:57:48;;;;;;;4.35;1.90;;;11.30;99.90;;;;;;6369826;22;20018;-91
2023/01/02 06:06:35;;;;;;;3.88;1.65;;;11.30;99.90;;;;;;6368154;22;20458;-93
2023/01/02 06:09:03;;;;;;;3.47;1.42;;;11.30;99.90;;;;;;6343841;22;20462;-93
2023/01/02 06:11:29;;;;;;;3.47;1.25;;;11.30;99.90;;;;;;6343474;22;20014;-95
2023/01/02 06:13:55;;;;;;;3.00;1.40;;;11.30;99.90;;;;;;6343429;22;20347;-93
2023/01/02 06:16:21;;;;;;;3.28;1.58;;;11.30;99.90;;;;;;6343834;22;20018;-94
2023/01/02 06:18:48;;;;;;;3.97;1.25;;;11.30;99.90;;;;;;6343770;22;20014;-94
2023/01/02 06:21:15;;;;;;;3.28;1.23;;;11.30;99.90;;;;;;6343594;22;20021;-94
2023/01/02 06:23:41;;;;;;;3.20;1.40;;;11.30;99.90;;;;;;6343221;22;20029;-94
2023/01/02 06:26:16;;;;;;;3.47;1.38;;;11.30;99.90;;;;;;6343682;22;20018;-94
2023/01/02 06:28:43;;;;;;;2.72;1.23;;;11.30;99.90;;;;;;6343611;22;20014;-94
2023/01/02 06:31:11;;;;;;;3.60;1.40;;;11.30;99.90;;;;;;6317701;22;20019;-94
2023/01/02 06:33:37;;;;;;;2.50;1.23;;;11.30;99.90;;;;;;6343559;22;20021;-95
2023/01/02 06:36:05;;;;;;;2.43;1.27;;;11.30;99.90;;;;;;6343477;22;20014;-95
2023/01/02 06:38:31;;;;;;;3.17;1.33;;;11.30;99.90;;;;;;6343366;22;20318;-94
2023/01/02 06:40:59;;;;;;;3.58;1.50;;;11.30;99.90;;;;;;6343898;22;20343;-93
2023/01/02 06:43:26;;;;;;;2.42;0.95;;;11.30;99.90;;;;;;6343209;22;20014;-93
2023/01/02 06:45:52;;;;;;;2.92;1.20;;;11.30;99.90;;;;;;6343757;22;20022;-94
2023/01/02 06:48:18;;;;;;;3.72;1.48;;;11.30;99.90;;;;;;6343733;22;20018;-93
2023/01/02 06:50:45;;;;;;;4.10;1.60;;;11.30;99.90;;;;;;6343621;22;20014;-89
2023/01/02 06:53:12;;;;;;;3.75;1.38;;;11.30;99.90;;;;;;6343169;22;20014;-92
2023/01/02 06:55:58;;;;;;;3.72;1.48;;;11.20;99.90;;;;;;6342475;22;20014;-93
2023/01/02 06:58:27;;;;;;;4.50;2.03;;;11.20;99.90;;;;;;6343341;22;20010;-94
2023/01/02 07:00:53;;;;;;;4.47;1.98;;;11.20;99.90;;;;;;6344760;22;20056;-93
2023/01/02 07:03:19;;;;;;;4.10;1.97;;;11.10;99.90;;;;;;6345086;22;20018;-91
2023/01/02 07:05:46;;;;;;;5.95;2.47;;;11.10;99.90;;;;;;6345309;22;20018;-92
2023/01/02 07:08:12;;;;;;;;;;;11.10;99.90;;;;;;6345804;22;20053;-90
2023/01/02 07:10:38;;;;;;;6.03;2.67;;;11.00;99.90;;;;;;6345580;22;19914;-91
2023/01/02 07:13:04;;;;;;;5.05;1.65;;;11.00;99.90;;;;;;6345354;22;20093;-92
2023/01/02 07:15:31;;;;;;;3.72;1.42;;;11.00;99.90;;;;;;6344923;22;20046;-90
2023/01/02 07:36:07;;;;;;;1.55;0.40;;;9.80;99.90;;;;;;6364239;22;20019;-89
2023/01/02 07:38:33;;;;;;;1.75;0.45;;;9.70;99.90;;;;;;6319333;22;20033;-93
2023/01/02 07:40:59;;;;;;;1.35;0.32;;;9.60;99.90;;;;;;6319020;22;20014;-89
2023/01/02 07:43:25;;;;;;;0.80;0.30;;;9.50;99.90;;;;;;6318846;22;20014;-91
2023/01/02 07:45:51;;;;;;;0.80;0.38;;;9.40;99.90;;;;;;6319307;22;20324;-91
2023/01/02 07:48:35;;;;;;;0.57;0.20;;;9.30;99.90;;;;;;6319215;22;20021;-88
2023/01/02 07:51:03;;;;;;;0.73;0.30;;;9.20;99.90;;;;;;6318711;22;20097;-89
2023/01/02 07:53:29;;;;;;;1.27;0.20;;;9.10;99.90;;;;;;6318252;22;20022;-90
2023/01/02 07:55:56;;;;;;;0.95;0.30;;;9.00;99.90;;;;;;6318352;22;20018;-93
2023/01/02 07:58:22;;;;;;;1.52;0.30;;;9.00;99.90;;;;;;6318512;22;20071;-89
2023/01/02 08:00:48;;;;;;;4.32;0.40;;;8.90;99.90;;;;;;6292518;22;20025;-89
2023/01/02 08:03:51;;;;;;;1.23;0.45;;;8.90;99.90;;;;;;6318627;22;20106;-89
2023/01/02 08:09:48;;;;;;;2.40;0.50;;;8.90;99.90;;;;;;6344267;22;20093;-91
2023/01/02 08:12:14;;;;;;;0.80;0.30;;;8.90;99.90;;;;;;6318505;22;20053;-90
2023/01/02 08:14:40;;;;;;;1.10;0.45;;;8.90;99.90;;;;;;6318538;22;20042;-89
2023/01/02 08:17:05;;;;;;;1.47;0.50;;;8.80;99.90;;;;;;6318287;22;20556;-93
2023/01/02 08:19:56;;;;;;;2.97;0.67;;;8.90;99.90;;;;;;6317090;22;20336;-95
2023/01/02 08:22:22;;;;;;;0.77;0.38;;;8.90;99.90;;;;;;6318646;22;20014;-94
2023/01/02 08:24:48;;;;;;;1.13;0.40;;;8.90;99.90;;;;;;6316948;22;20014;-94
2023/01/02 08:35:02;;;;;;;0.57;0.20;;;8.90;99.90;;;;;;6370175;22;20447;-90
2023/01/02 08:37:27;;;;;;;0.75;0.20;;;8.90;99.90;;;;;;6344268;22;20022;-93
2023/01/02 08:39:56;;;;;;;1.27;0.20;;;8.90;99.90;;;;;;6343946;22;20021;-93
2023/01/02 08:42:22;;;;;;;1.08;0.20;;;8.90;99.90;;;;;;6343783;22;20018;-92
2023/01/02 08:44:51;;;;;;;0.63;0.20;;;8.90;99.90;;;;;;6344262;22;20101;-90
2023/01/02 08:47:16;;;;;;;0.30;0.20;;;8.80;99.90;;;;;;6344098;22;20013;-91
2023/01/02 08:49:42;;;;;;;1.07;0.27;;;8.90;99.90;;;;;;6318049;22;20089;-92
2023/01/02 08:52:08;;;;;;;0.50;0.20;;;8.90;99.90;;;;;;6343914;22;20504;-93
2023/01/02 08:54:34;;;;;;;1.87;0.50;;;8.90;99.90;;;;;;6317824;22;20046;-89
2023/01/02 08:57:00;;;;;;;1.75;0.43;;;8.90;99.90;;;;;;6317836;22;20474;-87
2023/01/02 08:59:29;;;;;;;1.17;0.60;;;8.90;99.90;;;;;;6344082;22;20010;-91
2023/01/02 09:01:54;;;;;;;1.52;0.40;;;8.90;99.90;;;;;;6345682;22;20071;-91
2023/01/02 09:04:22;;;;;;;1.70;0.50;;;8.90;99.90;;;;;;6343601;22;20026;-91
2023/01/02 09:06:48;;;;;;;2.90;0.55;;;8.90;99.90;;;;;;6343605;22;20010;-90
2023/01/02 09:09:15;;;;;;;2.53;0.23;;;8.90;99.90;;;;;;6343893;22;20045;-91
2023/01/02 09:11:49;;;;;;;1.75;0.30;;;8.90;99.90;;;;;;6343594;22;20087;-92
2023/01/02 09:14:17;;;;;;;1.15;0.40;;;8.90;99.90;;;;;;6343797;22;20018;-91
2023/01/02 09:16:43;;;;;;;3.30;0.40;;;8.90;99.90;;;;;;6343740;22;20351;-92
2023/01/02 09:19:10;;;;;;;1.27;0.30;;;8.90;99.90;;;;;;6343429;22;20097;-91
2023/01/02 09:21:35;;;;;;;3.40;0.38;;;8.90;99.90;;;;;;6343652;22;20499;-91
2023/01/02 09:24:04;;;;;;;0.80;0.40;;;8.90;99.90;;;;;;6316983;22;20055;-90
2023/01/02 09:26:30;;;;;;;2.88;0.63;;;8.90;99.90;;;;;;6342146;22;20123;-91
2023/01/02 09:28:55;;;;;;;2.67;0.63;;;8.90;99.90;;;;;;6316166;22;20045;-91
2023/01/02 09:31:22;;;;;;;0.70;0.30;;;8.90;99.90;;;;;;6343475;22;20014;-92
2023/01/02 09:33:48;;;;;;;1.73;0.50;;;8.90;99.90;;;;;;6317303;22;20398;-91
2023/01/02 09:36:16;;;;;;;1.15;0.45;;;8.90;99.90;;;;;;6343010;22;20014;-89
2023/01/02 09:38:42;;;;;;;2.00;0.40;;;9.00;99.90;;;;;;6343304;22;20397;-89
2023/01/02 09:41:20;;;;;;;2.83;0.47;;;9.00;99.90;;;;;;6343102;22;20006;-91
2023/01/02 09:43:53;;;;;;;0.75;0.30;;;9.00;99.90;;;;;;6343398;22;20026;-89
2023/01/02 09:46:59;;;;;;;2.78;0.50;;;9.00;99.90;;;;;;6343193;22;20067;-89
2023/01/02 09:49:41;;;;;;;1.95;0.40;;;8.90;99.90;;;;;;6369367;22;20424;-90
2023/01/02 09:52:11;;;;;;;1.83;0.43;;;8.90;99.90;;;;;;6343067;22;20014;-90
2023/01/02 09:54:38;;;;;;;1.17;0.30;;;8.90;99.90;;;;;;6342800;22;20110;-88
2023/01/02 09:57:16;;;;;;;1.95;0.40;;;8.90;99.90;;;;;;6342601;22;20010;-91
2023/01/02 10:00:02;;;;;;;1.23;0.40;;;8.90;99.90;;;;;;6342960;22;20019;-88
2023/01/02 10:02:34;;;;;;;1.90;0.40;;;9.00;99.90;;;;;;6343179;22;20035;-90
2023/01/02 10:05:36;;;;;;;4.50;0.60;;;8.90;99.90;;;;;;6343013;22;20075;-90
2023/01/02 10:08:21;;;;;;;2.38;0.55;;;8.90;99.90;;;;;;6342938;22;20037;-90
2023/01/02 10:11:01;;;;;;;1.90;0.65;;;8.90;99.90;;;;;;6369311;22;20022;-91
2023/01/02 10:13:37;;;;;;;3.03;0.70;;;8.90;99.90;;;;;;6342938;22;20068;-89
2023/01/02 10:16:06;;;;;;;1.75;0.63;;;8.90;99.90;;;;;;6342733;22;20018;-92
2023/01/02 10:18:42;;;;;;;2.15;0.60;;;8.90;99.90;;;;;;6343064;22;20018;-90
2023/01/02 10:21:15;;;;;;;2.60;0.57;;;8.90;99.90;;;;;;6369024;22;20499;-88
2023/01/02 10:23:47;;;;;;;3.55;0.63;;;9.00;99.90;;;;;;6342523;22;20071;-90
2023/01/02 10:26:17;;;;;;;1.60;0.47;;;9.00;99.90;;;;;;6342949;22;20014;-87
2023/01/02 10:28:50;;;;;;;1.48;0.75;;;9.00;99.90;;;;;;6370176;22;20042;-89
2023/01/02 10:31:47;;;;;;;1.83;0.50;;;9.00;99.90;;;;;;6342784;22;20406;-91
2023/01/02 10:34:22;;;;;;;1.33;0.47;;;8.90;99.90;;;;;;6294706;22;20018;-90
2023/01/02 10:36:49;;;;;;;0.70;0.30;;;9.00;99.90;;;;;;6341925;22;20511;-89
2023/01/02 10:39:16;;;;;;;;;;;8.90;99.90;;;;;;6343270;22;20037;-92
2023/01/02 10:41:46;;;;;;;1.48;0.40;;;9.00;99.90;;;;;;6342801;22;19910;-90
2023/01/02 10:44:24;;;;;;;0.75;0.20;;;8.90;99.90;;;;;;6342595;22;20332;-89
2023/01/02 10:46:50;;;;;;;0.98;0.30;;;8.90;99.90;;;;;;6342479;22;20040;-89
2023/01/02 10:49:17;;;;;;;0.70;0.30;;;8.90;99.90;;;;;;6316704;22;20014;-90
2023/01/02 10:51:50;;;;;;;;;;;8.90;99.90;;;;;;6343117;22;20010;-91
2023/01/02 10:54:19;;;;;;;0.60;0.30;;;8.90;99.90;;;;;;6342894;22;19921;-92
2023/01/02 10:56:48;;;;;;;0.95;0.20;;;8.90;99.90;;;;;;6342694;22;20025;-90
2023/01/02 10:59:26;;;;;;;1.00;0.40;;;8.90;99.90;;;;;;6342573;22;20014;-91
2023/01/02 11:01:55;;;;;;;0.77;0.28;;;8.90;99.90;;;;;;6342682;22;20021;-91
2023/01/02 11:04:24;;;;;;;1.83;0.40;;;8.90;99.90;;;;;;6342831;22;20018;-91
2023/01/02 11:06:59;;;;;;;1.45;0.40;;;8.90;99.90;;;;;;6342214;22;20055;-92
2023/01/02 11:09:31;;;;;;;1.45;0.40;;;8.90;99.90;;;;;;6342911;22;20344;-89
2023/01/02 11:12:09;;;;;;;2.85;0.40;;;9.00;99.90;;;;;;6342807;22;20019;-91
2023/01/02 11:14:36;;;;;;;1.73;0.50;;;9.00;99.90;;;;;;6343273;22;20052;-91
2023/01/02 11:17:14;;;;;;;1.63;0.50;;;9.00;99.90;;;;;;6343224;22;20019;-92
2023/01/02 11:19:52;;;;;;;3.42;0.60;;;9.10;99.90;;;;;;6343040;22;20231;-90
2023/01/02 11:22:24;;;;;;;1.80;0.50;;;9.00;99.90;;;;;;6342673;22;20015;-91
2023/01/02 11:24:55;;;;;;;2.45;0.80;;;9.10;99.90;;;;;;6342519;22;20418;-90
2023/01/02 11:27:27;;;;;;;2.42;0.65;;;9.10;99.90;;;;;;6342728;22;20018;-92
2023/01/02 11:29:53;;;;;;;2.88;0.88;;;9.10;99.90;;;;;;6368744;22;20010;-90
2023/01/02 11:32:26;;;;;;;2.97;0.70;;;9.10;99.90;;;;;;6368874;22;20015;-91
2023/01/02 11:35:07;;;;;;;2.17;0.73;;;9.10;99.90;;;;;;6342131;22;20018;-90
2023/01/02 11:37:33;;;;;;;2.60;1.05;;;9.20;99.90;;;;;;6368728;22;20451;-92
2023/01/02 11:40:06;;;;;;;1.48;0.50;;;9.20;99.90;;;;;;6342527;22;20014;-91
2023/01/02 11:45:36;;;;;;;1.67;0.50;;;9.30;99.90;;;;;;6369289;22;20019;-90
2023/01/02 11:48:05;;;;;;;1.33;0.40;;;9.30;99.90;;;;;;6371934;22;20017;-91
2023/01/02 11:50:35;;;;;;;1.27;0.47;;;9.30;99.90;;;;;;6344471;22;20014;-90
2023/01/02 11:53:16;;;;;;;3.05;0.50;;;9.30;99.90;;;;;;6344112;22;20029;-91
2023/01/02 11:55:48;;;;;;;2.90;0.52;;;9.30;99.90;;;;;;6343999;22;20439;-92
2023/01/02 11:58:32;;;;;;;1.35;0.40;;;9.20;99.90;;;;;;6370669;22;20347;-89
2023/01/02 12:01:34;;;;;;;2.33;0.50;;;9.20;99.90;;;;;;6344142;22;20059;-90
2023/01/02 12:04:03;;;;;;;2.78;0.65;;;9.20;99.90;;;;;;6343741;22;20067;-93
2023/01/02 12:06:50;;;;;;;1.42;0.70;;;9.10;99.90;;;;;;6343875;22;20014;-92
2023/01/02 12:09:51;;;;;;;3.33;0.75;;;9.10;99.90;;;;;;6344253;22;20014;-95
2023/01/02 12:12:40;;;;;;;0.98;0.40;;;9.10;99.90;;;;;;6224562;22;20070;-92
2023/01/02 12:39:28;;;;;;;2.92;0.50;;;9.20;99.90;;;;;;6372880;22;20018;-89
2023/01/02 12:42:10;;;;;;;2.08;0.50;;;9.20;99.90;;;;;;6317934;22;20099;-92
2023/01/02 12:44:55;;;;;;;1.13;0.40;;;9.20;99.90;;;;;;6343525;22;20014;-89
2023/01/02 12:47:51;;;;;;;2.17;0.47;;;9.20;99.90;;;;;;6343990;22;20015;-91
2023/01/02 12:50:44;;;;;;;;;;;;;;;;;;;;;
2023/01/02 12:53:44;;;;;;;1.88;0.50;;;9.20;99.90;;;;;;6370290;22;20089;-89
2023/01/02 13:07:19;;;;;;;2.78;0.40;;;9.20;99.90;;;;;;6370366;22;20029;-88
2023/01/02 13:12:37;;;;;;;2.72;0.40;;;9.30;99.90;;;;;;6339436;22;20023;-89
2023/01/02 13:15:46;;;;;;;;;;;;;;;;;;;;;
2023/01/02 13:23:50;;;;;;;3.05;0.60;;;9.30;99.90;;;;;;6369167;22;20029;-87
2023/01/02 13:29:05;;;;;;;1.23;0.38;;;9.30;99.90;;;;;;6370586;22;20019;-90
2023/01/02 13:39:40;;;;;;;6.32;0.98;;;9.40;99.90;;;;;;6308398;22;20023;-87
2023/01/02 13:44:57;;;;;;;1.90;0.50;;;9.40;99.90;;;;;;6278638;22;20099;-90
2023/01/02 13:47:33;;;;;;;2.15;0.90;;;9.40;99.90;;;;;;6254226;22;20459;-90
2023/01/02 13:50:14;;;;;;;3.45;0.98;;;9.40;99.90;;;;;;6254356;22;20015;-89
2023/01/02 13:52:55;;;;;;;5.78;0.77;;;9.40;99.90;;;;;;6279571;22;20022;-91
2023/01/02 13:55:21;;;;;;;6.13;0.80;;;9.40;99.90;;;;;;6255224;22;20033;-90
2023/01/02 14:03:19;;;;;;;2.45;0.80;;;9.40;99.90;;;;;;6337145;22;20030;-92
2023/01/02 14:05:59;;;;;;;3.88;0.80;;;9.40;99.90;;;;;;6286721;22;20026;-89
2023/01/02 14:38:56;;;;;;;6.07;1.27;;;9.20;99.90;;;;;;6357819;22;20018;-88
2023/01/02 14:49:17;;;;;;;3.20;0.60;;;9.10;99.90;;;;;;6366696;22;20025;-91
2023/01/02 14:51:49;;;;;;;4.60;0.70;;;9.10;99.90;;;;;;6340011;22;20044;-89
2023/01/02 14:54:28;;;;;;;0.93;0.40;;;9.10;99.90;;;;;;6340750;22;20067;-91
2023/01/02 15:00:46;;;;;;;2.92;0.60;;;9.10;99.90;;;;;;6279769;22;20042;-94
2023/01/02 15:03:55;;;;;;;4.68;1.00;;;9.10;99.90;;;;;;6253607;22;20109;-91
2023/01/02 15:07:04;;;;;;;5.45;0.65;;;9.10;99.90;;;;;;6326849;22;20505;-92
2023/01/02 15:35:31;;;;;;;4.03;0.80;;;9.00;99.90;;;;;;6329601;22;20023;-90
2023/01/02 15:37:57;;;;;;;3.83;0.70;;;9.00;99.90;;;;;;6287112;22;20037;-91
2023/01/02 15:40:22;;;;;;;7.00;0.80;;;8.90;99.90;;;;;;6287582;22;20018;-93
2023/01/02 15:45:34;;;;;;;3.53;1.30;;;8.90;99.90;;;;;;6313058;22;20046;-89
2023/01/02 15:48:01;;;;;;;3.70;0.95;;;8.90;99.90;;;;;;6313189;22;20023;-88
2023/01/02 15:58:16;;;;;;;9.07;2.10;;;8.90;99.90;;;;;;6337476;22;20087;-90
2023/01/02 16:00:43;;;;;;;7.70;2.42;;;8.80;99.90;;;;;;6371236;22;20143;-95
2023/01/02 16:03:10;;;;;;;5.22;2.53;;;8.80;99.90;;;;;;6344448;22;20445;-90
2023/01/02 16:05:50;;;;;;;5.60;2.75;;;8.80;99.90;;;;;;6318926;22;20018;-95
2023/01/02 16:08:19;;;;;;;6.63;2.20;;;8.80;99.90;;;;;;6344551;22;20011;-95
2023/01/02 16:10:49;;;;;;;7.78;1.98;;;8.80;99.90;;;;;;6370716;22;20020;-94
2023/01/02 16:16:05;;;;;;;3.47;1.20;;;8.70;99.90;;;;;;6371406;22;20079;-93
2023/01/02 16:18:40;;;;;;;7.15;1.50;;;8.60;99.90;;;;;;6345093;22;20026;-94
2023/01/02 16:21:08;;;;;;;3.17;1.17;;;8.60;99.90;;;;;;6345930;22;20053;-96
2023/01/02 16:23:36;;;;;;;4.80;1.85;;;8.60;99.90;;;;;;6344471;22;20047;-93
2023/01/02 17:27:09;;;;;;;5.15;1.63;;;7.90;99.90;;;;;;6352256;22;20078;-93
2023/01/02 17:29:37;;;;;;;6.23;2.07;;;7.90;99.90;;;;;;6343632;22;20054;-91
2023/01/02 17:32:03;;;;;;;4.53;1.80;;;7.80;99.90;;;;;;6318695;22;20015;-94
2023/01/02 17:34:30;;;;;;;5.70;1.80;;;7.80;99.90;;;;;;6369077;22;20022;-92
2023/01/02 17:36:57;;;;;;;4.28;1.70;;;7.70;99.90;;;;;;6342017;22;20062;-91
2023/01/02 17:39:23;;;;;;;6.95;1.77;;;7.70;99.90;;;;;;6343889;22;20025;-94
2023/01/02 17:42:15;;;;;;;6.00;1.85;;;7.70;99.90;;;;;;6318146;22;20018;-95
2023/01/02 18:23:31;;;;;;;5.55;1.75;;;7.30;99.90;;;;;;6326524;22;20340;-91
2023/01/02 18:25:59;;;;;;;5.73;1.40;;;7.20;99.90;;;;;;6287175;22;20025;-93
2023/01/02 18:28:25;;;;;;;2.42;1.00;;;7.20;99.90;;;;;;6286668;22;20026;-93
2023/01/02 18:56:36;;;;;;;3.85;1.00;;;6.90;99.90;;;;;;6357705;22;20448;-94
2023/01/02 18:59:12;;;;;;;5.93;2.10;;;6.90;99.90;;;;;;6343456;22;20021;-92
2023/01/02 19:01:47;;;;;;;5.72;1.20;;;6.90;99.90;;;;;;6344232;22;20015;-94
